createdAt,value
2023-05-08T00:02:04.860Z,150013.03
2023-05-08T00:04:31.483Z,148293.31
2023-05-08T00:06:58.097Z,149810.16
2023-05-08T00:09:24.651Z,149035.19
2023-05-08T00:11:51.114Z,149789.34
2023-05-08T00:14:17.790Z,150592.03
2023-05-08T00:16:44.569Z,150379.28
2023-05-08T00:19:11.251Z,149245.66
2023-05-08T00:21:37.806Z,149813.94
2023-05-08T00:24:04.423Z,149100.97
2023-05-08T00:26:30.973Z,143949.13
2023-05-08T00:28:57.516Z,148521.41
2023-05-08T00:31:23.992Z,147572.88
2023-05-08T00:33:50.565Z,147138.66
2023-05-08T00:36:17.122Z,146927.94
2023-05-08T00:38:43.760Z,146872.06
2023-05-08T00:41:10.399Z,145141.00
2023-05-08T00:43:36.857Z,144428.81
2023-05-08T00:46:03.780Z,145077.53
2023-05-08T00:48:35.052Z,144579.44
2023-05-08T00:51:04.442Z,146024.50
2023-05-08T00:53:33.609Z,146090.38
2023-05-08T00:56:00.223Z,146072.09
2023-05-08T00:58:27.592Z,145881.81
2023-05-08T01:00:55.969Z,145136.03
2023-05-08T01:03:24.110Z,145181.81
2023-05-08T01:05:50.737Z,142815.06
2023-05-08T01:08:17.415Z,146508.28
2023-05-08T01:11:05.165Z,144045.16
2023-05-08T01:14:01.193Z,144420.69
2023-05-08T01:16:49.297Z,142626.34
2023-05-08T01:19:32.324Z,142315.97
2023-05-08T01:22:26.496Z,141974.75
2023-05-08T01:25:09.180Z,143861.13
2023-05-08T01:27:45.037Z,141853.88
2023-05-08T01:30:23.636Z,141854.16
2023-05-08T01:32:56.754Z,142214.16
2023-05-08T01:35:45.218Z,141858.25
2023-05-08T01:38:39.951Z,142007.34
2023-05-08T01:41:16.041Z,141802.75
2023-05-08T01:43:51.665Z,141080.38
2023-05-08T01:46:25.362Z,140949.44
2023-05-08T01:49:00.313Z,141600.50
2023-05-08T01:51:33.678Z,141230.19
2023-05-08T01:54:08.765Z,140637.94
2023-05-08T01:56:39.020Z,141316.66
2023-05-08T01:59:07.726Z,140302.41
2023-05-08T02:01:34.932Z,140382.22
2023-05-08T02:04:03.736Z,140301.66
2023-05-08T02:06:31.981Z,140439.41
2023-05-08T02:09:00.859Z,139828.66
2023-05-08T02:11:30.684Z,139951.41
2023-05-08T02:13:59.218Z,139172.69
2023-05-08T02:16:27.231Z,139498.03
2023-05-08T02:18:56.122Z,139585.59
2023-05-08T02:21:23.498Z,140490.13
2023-05-08T02:23:51.910Z,140293.09
2023-05-08T02:26:20.498Z,139663.63
2023-05-08T02:28:49.512Z,139665.91
2023-05-08T02:31:18.216Z,140880.44
2023-05-08T02:33:45.630Z,138369.97
2023-05-08T02:36:16.709Z,138791.75
2023-05-08T02:38:45.844Z,139685.31
2023-05-08T02:41:14.688Z,139639.19
2023-05-08T02:43:42.020Z,138874.38
2023-05-08T02:46:30.054Z,139700.09
2023-05-08T02:48:58.764Z,140633.72
2023-05-08T02:51:47.110Z,140144.13
2023-05-08T02:54:27.209Z,141029.38
2023-05-08T02:56:59.946Z,139453.53
2023-05-08T02:59:35.932Z,139396.47
2023-05-08T03:02:26.851Z,134888.84
2023-05-08T03:04:59.279Z,139704.72
2023-05-08T03:07:27.266Z,139017.72
2023-05-08T03:09:59.265Z,139138.31
2023-05-08T03:12:28.791Z,139977.81
2023-05-08T03:15:02.096Z,139559.13
2023-05-08T03:17:32.993Z,140620.84
2023-05-08T03:20:03.751Z,139727.81
2023-05-08T03:22:32.485Z,139033.13
2023-05-08T03:25:02.463Z,139087.38
2023-05-08T03:27:30.036Z,138591.38
2023-05-08T03:29:57.887Z,138062.03
2023-05-08T03:32:27.648Z,139395.28
2023-05-08T03:34:55.578Z,139316.44
2023-05-08T03:37:22.136Z,138584.16
2023-05-08T03:39:48.657Z,139068.22
2023-05-08T03:42:15.124Z,138941.63
2023-05-08T03:44:42.810Z,139263.88
2023-05-08T03:47:10.026Z,139786.88
2023-05-08T03:49:38.722Z,139373.59
2023-05-08T03:52:05.190Z,139610.84
2023-05-08T03:54:31.685Z,139382.09
2023-05-08T03:56:58.131Z,138482.03
2023-05-08T03:59:38.511Z,139048.63
2023-05-08T04:02:12.652Z,139119.75
2023-05-08T04:04:45.613Z,138172.97
2023-05-08T04:07:53.974Z,137669.03
2023-05-08T04:10:33.733Z,137573.19
2023-05-08T04:13:07.144Z,137684.06
2023-05-08T04:15:38.392Z,137477.59
2023-05-08T04:18:09.725Z,137818.00
2023-05-08T04:20:41.838Z,137442.94
2023-05-08T04:23:09.496Z,136530.94
2023-05-08T04:25:38.488Z,137688.88
2023-05-08T04:28:05.568Z,136488.59
2023-05-08T04:30:32.157Z,137446.91
2023-05-08T04:32:59.317Z,136771.06
2023-05-08T04:35:26.125Z,135239.84
2023-05-08T04:37:52.811Z,136755.44
2023-05-08T04:40:19.280Z,137002.34
2023-05-08T04:42:45.743Z,136640.00
2023-05-08T04:45:12.692Z,136077.09
2023-05-08T04:47:39.435Z,136322.88
2023-05-08T04:50:06.350Z,135778.06
2023-05-08T04:52:32.789Z,135894.38
2023-05-08T04:54:59.234Z,136158.09
2023-05-08T04:57:25.667Z,134624.81
2023-05-08T04:59:52.122Z,135513.16
2023-05-08T05:02:18.802Z,136109.00
2023-05-08T05:04:45.238Z,136342.50
2023-05-08T05:07:11.695Z,135454.78
2023-05-08T05:09:38.150Z,136247.81
2023-05-08T05:12:05.545Z,135802.63
2023-05-08T05:14:33.460Z,133990.03
2023-05-08T05:16:59.963Z,132077.88
2023-05-08T05:19:26.395Z,131856.09
2023-05-08T05:21:52.870Z,135433.75
2023-05-08T05:24:19.297Z,135454.81
2023-05-08T05:26:45.740Z,135722.59
2023-05-08T05:29:12.100Z,135682.53
2023-05-08T05:31:38.656Z,134880.59
2023-05-08T05:34:05.200Z,134784.19
2023-05-08T05:36:31.724Z,134545.25
2023-05-08T05:38:58.175Z,134087.50
2023-05-08T05:41:24.595Z,133522.81
2023-05-08T05:43:51.090Z,133962.69
2023-05-08T05:46:17.620Z,133817.13
2023-05-08T05:48:44.127Z,132758.28
2023-05-08T05:51:10.695Z,133229.19
2023-05-08T05:53:37.258Z,132482.72
2023-05-08T05:56:03.953Z,132730.28
2023-05-08T05:58:30.398Z,132898.91
2023-05-08T06:00:58.565Z,132859.44
2023-05-08T06:03:25.172Z,132418.97
2023-05-08T06:05:51.626Z,132030.00
2023-05-08T06:08:18.131Z,131061.78
2023-05-08T06:10:44.556Z,131330.72
2023-05-08T06:13:11.075Z,130701.81
2023-05-08T06:15:37.573Z,129952.78
2023-05-08T06:18:04.130Z,130418.50
2023-05-08T06:20:30.641Z,130022.28
2023-05-08T06:22:57.077Z,129317.75
2023-05-08T06:25:23.767Z,130234.22
2023-05-08T06:27:50.231Z,130250.28
2023-05-08T06:30:16.702Z,129631.84
2023-05-08T06:32:43.197Z,130923.31
2023-05-08T06:35:10.215Z,130606.13
2023-05-08T06:37:36.914Z,129262.56
2023-05-08T06:40:12.339Z,129509.38
2023-05-08T06:42:39.742Z,130034.81
2023-05-08T06:45:06.840Z,130643.72
2023-05-08T06:47:33.446Z,130156.97
2023-05-08T06:50:00.908Z,129865.06
2023-05-08T06:52:27.376Z,128830.19
2023-05-08T06:54:53.927Z,128817.97
2023-05-08T06:57:20.403Z,128381.72
2023-05-08T06:59:46.871Z,126428.88
2023-05-08T07:02:13.386Z,126277.13
2023-05-08T07:04:39.904Z,126581.53
2023-05-08T07:07:06.353Z,126450.09
2023-05-08T07:09:32.855Z,125008.78
2023-05-08T07:11:59.265Z,123583.47
2023-05-08T07:14:25.648Z,122925.50
2023-05-08T07:16:52.095Z,122262.47
2023-05-08T07:19:19.894Z,119443.84
2023-05-08T07:21:48.256Z,118340.44
2023-05-08T07:24:14.704Z,119347.31
2023-05-08T07:26:41.209Z,118884.44
2023-05-08T07:29:07.725Z,118028.13
2023-05-08T07:31:34.247Z,118355.75
2023-05-08T07:34:00.726Z,117026.41
2023-05-08T07:36:27.231Z,117224.97
2023-05-08T07:38:53.651Z,117093.19
2023-05-08T07:41:20.264Z,116762.50
2023-05-08T07:43:46.790Z,116659.75
2023-05-08T07:46:17.419Z,117033.72
2023-05-08T07:48:43.899Z,116433.25
2023-05-08T07:51:10.736Z,116187.84
2023-05-08T07:53:37.388Z,115842.53
2023-05-08T07:56:04.061Z,116085.00
2023-05-08T07:58:30.604Z,115925.47
2023-05-08T08:00:57.105Z,116021.75
2023-05-08T08:03:23.618Z,115785.72
2023-05-08T08:05:50.179Z,115602.59
2023-05-08T08:08:16.793Z,115754.13
2023-05-08T08:10:43.244Z,116063.84
2023-05-08T08:13:09.700Z,115952.91
2023-05-08T08:15:36.155Z,116225.38
2023-05-08T08:18:02.663Z,116367.50
2023-05-08T08:20:29.239Z,115130.00
2023-05-08T08:22:55.758Z,115508.25
2023-05-08T08:25:22.350Z,116064.41
2023-05-08T08:27:48.756Z,116131.13
2023-05-08T08:30:18.000Z,115787.44
2023-05-08T08:32:45.835Z,116502.06
2023-05-08T08:35:12.713Z,115913.06
2023-05-08T08:37:39.676Z,116214.81
2023-05-08T08:40:07.157Z,116087.88
2023-05-08T08:42:33.815Z,116065.34
2023-05-08T08:45:01.307Z,115532.69
2023-05-08T08:47:29.270Z,115226.75
2023-05-08T08:49:58.307Z,115549.69
2023-05-08T08:52:34.440Z,115747.00
2023-05-08T08:55:03.975Z,114659.66
2023-05-08T08:57:34.099Z,114127.34
2023-05-08T09:00:02.566Z,113718.69
2023-05-08T09:02:31.001Z,113393.09
2023-05-08T09:04:58.248Z,113039.56
2023-05-08T09:07:25.399Z,112287.34
2023-05-08T09:09:52.564Z,112230.28
2023-05-08T09:12:19.023Z,112018.28
2023-05-08T09:14:45.538Z,111507.13
2023-05-08T09:17:12.010Z,109818.19
2023-05-08T09:19:38.855Z,110204.41
2023-05-08T09:22:05.389Z,109678.41
2023-05-08T09:24:55.212Z,109309.47
2023-05-08T09:27:22.730Z,109469.25
2023-05-08T09:29:59.200Z,109132.66
2023-05-08T09:32:25.788Z,108430.38
2023-05-08T09:34:52.868Z,108183.59
2023-05-08T09:37:21.215Z,108513.88
2023-05-08T09:39:47.673Z,107647.22
2023-05-08T09:42:14.399Z,107548.34
2023-05-08T09:44:45.498Z,107417.03
2023-05-08T09:47:14.112Z,107230.56
2023-05-08T09:49:55.940Z,107173.31
2023-05-08T09:52:22.800Z,107156.47
2023-05-08T09:55:05.101Z,107079.91
2023-05-08T09:57:33.747Z,106979.91
2023-05-08T10:00:12.360Z,106651.38
2023-05-08T10:02:41.090Z,106656.06
2023-05-08T10:05:32.316Z,106729.88
2023-05-08T10:08:17.253Z,106827.50
2023-05-08T10:10:43.876Z,106650.50
2023-05-08T10:13:10.405Z,106858.34
2023-05-08T10:15:38.694Z,106807.84
2023-05-08T10:18:07.527Z,106759.78
2023-05-08T10:20:38.708Z,106709.47
2023-05-08T10:23:08.114Z,106625.03
2023-05-08T10:25:36.164Z,106596.94
2023-05-08T10:28:21.349Z,106551.88
2023-05-08T10:30:49.228Z,106603.09
2023-05-08T10:33:20.710Z,106743.16
2023-05-08T10:35:48.478Z,106843.28
2023-05-08T10:38:16.452Z,106768.59
2023-05-08T10:40:43.041Z,106557.47
2023-05-08T10:43:10.873Z,106707.41
2023-05-08T10:45:38.236Z,106552.09
2023-05-08T10:48:28.916Z,106908.56
2023-05-08T10:51:21.794Z,106639.44
2023-05-08T10:53:53.927Z,106712.00
2023-05-08T10:56:28.417Z,106501.16
2023-05-08T10:58:59.221Z,106605.75
2023-05-08T11:01:26.898Z,106569.03
2023-05-08T11:03:53.746Z,106550.25
2023-05-08T11:06:43.866Z,106449.72
2023-05-08T11:09:15.237Z,106333.69
2023-05-08T11:11:48.786Z,106534.19
2023-05-08T11:14:16.966Z,106468.56
2023-05-08T11:16:55.602Z,106432.34
2023-05-08T11:19:23.990Z,106468.75
2023-05-08T11:22:23.256Z,106479.31
2023-05-08T11:24:55.673Z,106277.25
2023-05-08T11:27:46.958Z,106269.91
2023-05-08T11:30:34.292Z,106285.44
2023-05-08T11:33:04.221Z,106320.78
2023-05-08T11:36:00.044Z,106284.56
2023-05-08T11:39:08.641Z,106262.16
2023-05-08T11:41:35.212Z,106251.94
2023-05-08T11:44:04.489Z,106304.56
2023-05-08T11:46:51.298Z,106276.16
2023-05-08T11:49:23.824Z,106271.00
2023-05-08T11:51:54.792Z,106151.00
2023-05-08T11:54:22.492Z,106165.97
2023-05-08T11:56:50.755Z,106037.25
2023-05-08T11:59:18.447Z,106115.75
2023-05-08T12:01:53.619Z,106184.44
2023-05-08T12:04:26.986Z,106037.69
2023-05-08T12:06:57.788Z,106096.66
2023-05-08T12:09:24.358Z,106131.75
2023-05-08T12:11:57.177Z,106074.91
2023-05-08T12:14:23.690Z,106069.06
2023-05-08T12:16:50.838Z,106181.88
2023-05-08T12:19:17.298Z,106084.34
2023-05-08T12:21:50.134Z,106082.38
2023-05-08T12:24:17.601Z,105986.06
2023-05-08T12:26:44.139Z,105963.34
2023-05-08T12:29:10.528Z,105954.38
2023-05-08T12:31:38.132Z,106050.72
2023-05-08T12:34:05.990Z,105993.75
2023-05-08T12:36:36.272Z,105886.06
2023-05-08T12:39:11.151Z,105968.09
2023-05-08T12:41:42.474Z,105961.78
2023-05-08T12:44:25.573Z,105975.81
2023-05-08T12:46:54.088Z,105805.22
2023-05-08T12:49:27.877Z,105814.47
2023-05-08T12:52:05.109Z,105746.03
2023-05-08T12:54:33.169Z,105774.47
2023-05-08T12:56:59.596Z,105771.53
2023-05-08T12:59:31.925Z,105718.72
2023-05-08T13:01:58.447Z,105700.13
2023-05-08T13:04:25.102Z,105723.75
2023-05-08T13:06:56.234Z,105740.34
2023-05-08T13:09:22.953Z,105780.72
2023-05-08T13:11:49.765Z,105878.06
2023-05-08T13:14:16.245Z,105793.66
2023-05-08T13:16:44.404Z,105810.25
2023-05-08T13:19:11.019Z,105723.81
2023-05-08T13:21:37.520Z,105647.47
2023-05-08T13:24:04.092Z,105555.53
2023-05-08T13:26:30.627Z,105513.13
2023-05-08T13:28:57.093Z,105462.47
2023-05-08T13:31:23.709Z,105337.69
2023-05-08T13:33:50.154Z,105378.28
2023-05-08T13:36:16.550Z,105220.88
2023-05-08T13:38:42.952Z,105128.72
2023-05-08T13:41:09.416Z,105153.16
2023-05-08T13:43:35.930Z,105130.91
2023-05-08T13:46:04.778Z,105152.41
2023-05-08T13:48:32.675Z,105264.50
2023-05-08T13:50:59.115Z,105286.44
2023-05-08T13:53:25.530Z,105131.94
2023-05-08T13:55:51.977Z,105046.19
2023-05-08T13:58:18.479Z,104986.66
2023-05-08T14:00:44.890Z,104976.78
2023-05-08T14:03:11.438Z,105042.22
2023-05-08T14:05:37.937Z,104985.84
2023-05-08T14:08:04.597Z,104983.66
2023-05-08T14:10:31.046Z,105033.00
2023-05-08T14:12:57.558Z,105002.16
2023-05-08T14:15:29.180Z,105010.28
2023-05-08T14:18:02.853Z,105028.25
2023-05-08T14:20:29.336Z,104975.44
2023-05-08T14:22:59.602Z,104915.59
2023-05-08T14:25:26.643Z,104937.88
2023-05-08T14:27:53.150Z,104857.94
2023-05-08T14:30:19.602Z,104835.81
2023-05-08T14:32:46.138Z,104836.53
2023-05-08T14:35:12.829Z,104828.41
2023-05-08T14:37:39.949Z,104832.25
2023-05-08T14:40:07.353Z,104765.84
2023-05-08T14:42:34.238Z,104812.34
2023-05-08T14:45:00.864Z,104791.06
2023-05-08T14:47:27.436Z,104800.78
2023-05-08T14:49:53.944Z,104786.88
2023-05-08T14:52:20.438Z,104824.53
2023-05-08T14:54:47.117Z,104789.53
2023-05-08T14:57:13.692Z,104868.13
2023-05-08T14:59:49.032Z,104921.03
2023-05-08T15:02:21.033Z,104894.72
2023-05-08T15:04:47.590Z,104784.56
2023-05-08T15:07:14.034Z,104912.13
2023-05-08T15:09:40.578Z,104923.03
2023-05-08T15:12:07.100Z,104874.09
2023-05-08T15:14:33.573Z,104889.19
2023-05-08T15:17:00.000Z,104843.38
2023-05-08T15:19:26.389Z,104881.19
2023-05-08T15:21:52.941Z,104810.41
2023-05-08T15:24:19.388Z,104879.44
2023-05-08T15:26:45.862Z,104861.03
2023-05-08T15:29:12.354Z,104828.94
2023-05-08T15:31:38.825Z,104887.44
2023-05-08T15:34:05.263Z,104892.28
2023-05-08T15:36:31.767Z,104838.16
2023-05-08T15:38:58.234Z,104755.53
2023-05-08T15:41:24.744Z,104778.75
2023-05-08T15:43:51.198Z,104820.28
2023-05-08T15:46:17.815Z,104886.41
2023-05-08T15:48:44.502Z,104861.63
2023-05-08T15:51:11.045Z,104812.88
2023-05-08T15:53:37.764Z,104895.25
2023-05-08T15:56:07.580Z,104862.28
2023-05-08T15:58:34.021Z,104838.38
2023-05-08T16:01:00.472Z,104853.16
2023-05-08T16:03:27.039Z,104828.66
2023-05-08T16:05:53.591Z,104811.00
2023-05-08T16:08:20.091Z,104848.06
2023-05-08T16:10:46.566Z,104858.72
2023-05-08T16:13:13.117Z,104896.78
2023-05-08T16:15:40.014Z,104876.00
2023-05-08T16:18:06.927Z,104826.53
2023-05-08T16:20:35.702Z,104839.31
2023-05-08T16:23:02.734Z,104760.50
2023-05-08T16:25:29.202Z,104800.94
2023-05-08T16:27:55.756Z,104765.84
2023-05-08T16:30:22.222Z,104753.72
2023-05-08T16:32:48.733Z,104756.34
2023-05-08T16:35:15.452Z,104758.84
2023-05-08T16:37:42.662Z,104802.38
2023-05-08T16:40:10.078Z,104772.13
2023-05-08T16:42:37.019Z,104713.72
2023-05-08T16:45:04.815Z,104726.69
2023-05-08T16:47:31.339Z,104774.16
2023-05-08T16:49:57.832Z,104707.53
2023-05-08T16:52:24.555Z,104722.78
2023-05-08T16:54:51.001Z,104715.38
2023-05-08T16:57:17.779Z,104744.91
2023-05-08T16:59:44.487Z,104726.53
2023-05-08T17:02:10.992Z,104710.59
2023-05-08T17:04:37.611Z,104690.97
2023-05-08T17:07:04.011Z,104647.34
2023-05-08T17:09:30.474Z,104670.19
2023-05-08T17:11:57.069Z,104681.31
2023-05-08T17:14:23.598Z,104673.41
2023-05-08T17:16:50.075Z,104691.56
2023-05-08T17:19:16.636Z,104653.00
2023-05-08T17:21:43.121Z,104663.56
2023-05-08T17:24:09.611Z,104684.66
2023-05-08T17:26:36.070Z,104734.00
2023-05-08T17:29:02.541Z,104698.25
2023-05-08T17:31:29.042Z,104683.88
2023-05-08T17:33:55.565Z,104720.19
2023-05-08T17:36:22.128Z,104713.97
2023-05-08T17:38:48.627Z,104755.53
2023-05-08T17:41:15.110Z,104733.19
2023-05-08T17:43:41.584Z,104705.31
2023-05-08T17:46:08.203Z,104712.00
2023-05-08T17:48:35.321Z,104737.84
2023-05-08T17:51:02.621Z,104734.41
2023-05-08T17:53:30.078Z,104694.13
2023-05-08T17:55:56.956Z,104692.22
2023-05-08T17:58:23.482Z,104658.69
2023-05-08T18:00:49.921Z,104625.72
2023-05-08T18:03:16.581Z,104633.63
2023-05-08T18:05:43.201Z,104651.72
2023-05-08T18:08:09.677Z,104663.97
2023-05-08T18:10:36.372Z,104669.78
2023-05-08T18:13:02.878Z,104654.78
2023-05-08T18:15:29.398Z,104680.75
2023-05-08T18:17:55.918Z,104669.91
2023-05-08T18:20:22.387Z,104687.56
2023-05-08T18:22:48.890Z,104680.66
2023-05-08T18:25:15.688Z,104674.13
2023-05-08T18:27:42.207Z,104677.34
2023-05-08T18:30:09.204Z,104692.94
2023-05-08T18:32:35.675Z,104669.91
2023-05-08T18:35:02.206Z,104664.53
2023-05-08T18:37:28.876Z,104690.19
2023-05-08T18:39:55.570Z,104690.78
2023-05-08T18:42:22.001Z,104722.56
2023-05-08T18:44:48.468Z,104723.94
2023-05-08T18:47:14.881Z,104727.31
2023-05-08T18:49:41.575Z,104716.28
2023-05-08T18:52:08.162Z,104724.97
2023-05-08T18:54:34.610Z,104728.28
2023-05-08T18:57:01.118Z,104680.72
2023-05-08T18:59:27.504Z,104680.44
2023-05-08T19:01:53.970Z,104662.56
2023-05-08T19:04:20.419Z,104690.25
2023-05-08T19:06:46.884Z,104692.66
2023-05-08T19:09:13.319Z,104679.38
2023-05-08T19:11:39.773Z,104685.44
2023-05-08T19:14:06.226Z,104681.97
2023-05-08T19:16:32.886Z,104701.81
2023-05-08T19:18:59.421Z,104697.13
2023-05-08T19:21:25.896Z,104710.03
2023-05-08T19:23:52.297Z,104689.13
2023-05-08T19:26:18.701Z,104701.59
2023-05-08T19:28:45.167Z,104687.03
2023-05-08T19:31:11.705Z,104712.69
2023-05-08T19:33:38.374Z,104729.31
2023-05-08T19:36:05.026Z,104713.81
2023-05-08T19:38:31.498Z,104706.59
2023-05-08T19:40:58.187Z,104729.06
2023-05-08T19:43:26.005Z,104722.72
2023-05-08T19:45:52.543Z,104746.25
2023-05-08T19:48:19.189Z,104756.22
2023-05-08T19:50:45.655Z,104775.41
2023-05-08T19:53:12.425Z,104771.66
2023-05-08T19:55:38.940Z,104790.22
2023-05-08T19:58:05.387Z,104755.84
2023-05-08T20:00:31.866Z,104792.00
2023-05-08T20:02:59.450Z,104814.06
2023-05-08T20:05:25.980Z,104799.22
2023-05-08T20:07:52.478Z,104815.72
2023-05-08T20:10:19.039Z,104806.84
2023-05-08T20:12:45.462Z,104837.75
2023-05-08T20:15:12.089Z,104828.31
2023-05-08T20:17:38.773Z,104859.53
2023-05-08T20:20:05.944Z,104865.22
2023-05-08T20:22:32.438Z,104846.06
2023-05-08T20:24:58.893Z,104866.72
2023-05-08T20:27:25.411Z,104871.00
2023-05-08T20:29:51.926Z,104882.34
2023-05-08T20:32:18.388Z,104890.69
2023-05-08T20:34:44.935Z,104906.22
2023-05-08T20:37:11.427Z,104907.16
2023-05-08T20:39:37.922Z,104927.81
2023-05-08T20:42:04.426Z,104900.91
2023-05-08T20:44:30.839Z,104907.41
2023-05-08T20:46:57.342Z,104906.34
2023-05-08T20:49:23.771Z,104888.69
2023-05-08T20:51:50.236Z,104908.41
2023-05-08T20:54:16.770Z,104865.00
2023-05-08T20:56:43.245Z,104862.66
2023-05-08T20:59:09.809Z,104871.66
2023-05-08T21:01:36.329Z,104877.75
2023-05-08T21:04:02.794Z,104888.00
2023-05-08T21:06:29.259Z,104911.13
2023-05-08T21:08:55.705Z,104895.69
2023-05-08T21:11:22.162Z,104906.47
2023-05-08T21:13:48.648Z,104914.44
2023-05-08T21:16:15.142Z,104919.13
2023-05-08T21:18:41.697Z,104930.47
2023-05-08T21:21:15.730Z,104957.38
2023-05-08T21:23:42.412Z,104961.03
2023-05-08T21:26:08.907Z,104974.72
2023-05-08T21:28:35.472Z,104983.31
2023-05-08T21:31:02.009Z,104978.63
2023-05-08T21:33:28.501Z,105006.81
2023-05-08T21:35:55.006Z,105028.28
2023-05-08T21:38:21.526Z,105016.03
2023-05-08T21:40:48.012Z,105011.16
2023-05-08T21:43:14.397Z,105040.19
2023-05-08T21:45:40.801Z,105059.63
2023-05-08T21:48:07.241Z,105084.13
2023-05-08T21:50:33.678Z,105054.81
2023-05-08T21:53:00.156Z,105079.56
2023-05-08T21:55:26.717Z,105115.06
2023-05-08T21:57:53.126Z,105098.56
2023-05-08T22:00:20.049Z,105055.44
2023-05-08T22:02:46.576Z,105082.00
2023-05-08T22:05:13.352Z,105083.44
2023-05-08T22:07:40.018Z,105109.75
2023-05-08T22:10:07.216Z,105094.09
2023-05-08T22:12:33.632Z,105280.88
2023-05-08T22:15:00.082Z,105248.50
2023-05-08T22:17:26.590Z,105213.81
2023-05-08T22:19:53.039Z,105178.94
2023-05-08T22:22:19.553Z,105157.31
2023-05-08T22:24:45.972Z,105092.44
2023-05-08T22:27:12.404Z,105087.28
2023-05-08T22:29:38.804Z,105070.78
2023-05-08T22:32:05.362Z,105067.94
2023-05-08T22:34:31.856Z,105015.00
2023-05-08T22:36:58.277Z,105015.28
2023-05-08T22:39:24.651Z,105033.56
2023-05-08T22:41:51.090Z,105033.06
2023-05-08T22:44:17.567Z,105029.97
2023-05-08T22:46:44.281Z,105028.28
2023-05-08T22:49:11.025Z,105026.88
2023-05-08T22:51:37.506Z,105033.44
2023-05-08T22:54:04.090Z,105030.47
2023-05-08T22:56:30.528Z,105054.47
2023-05-08T22:58:56.958Z,105045.63
2023-05-08T23:01:23.447Z,105010.75
2023-05-08T23:03:53.125Z,105007.91
2023-05-08T23:06:19.741Z,105018.31
2023-05-08T23:08:46.275Z,105012.34
2023-05-08T23:11:12.724Z,105004.19
2023-05-08T23:13:39.473Z,104994.66
2023-05-08T23:16:06.386Z,105022.47
2023-05-08T23:18:33.002Z,105012.69
2023-05-08T23:21:07.608Z,105001.94
2023-05-08T23:23:34.910Z,105018.16
2023-05-08T23:26:01.552Z,105008.03
2023-05-08T23:28:27.979Z,104971.88
2023-05-08T23:30:54.417Z,104993.13
2023-05-08T23:33:20.958Z,104995.25
2023-05-08T23:35:47.343Z,104984.41
2023-05-08T23:38:13.796Z,104973.91
2023-05-08T23:40:40.215Z,104961.59
2023-05-08T23:43:06.619Z,104984.28
2023-05-08T23:45:33.193Z,104960.56
2023-05-08T23:47:59.754Z,104977.84
2023-05-08T23:50:26.234Z,104969.72
2023-05-08T23:52:52.644Z,104958.16
2023-05-08T23:55:19.079Z,104949.19
2023-05-08T23:57:45.558Z,104956.50
